createdAt,value
2017-02-18T10:31:27.517Z,836
2017-02-18T10:32:08.921Z,848
2017-02-18T10:32:49.503Z,856
2017-02-18T10:33:30.120Z,860
2017-02-18T10:34:10.714Z,880
2017-02-18T10:34:51.308Z,900
2017-02-18T10:35:31.965Z,916
2017-02-18T10:36:12.578Z,912
2017-02-18T10:36:53.248Z,900
2017-02-18T10:37:33.868Z,888
2017-02-18T10:38:14.470Z,892
2017-02-18T10:38:55.089Z,904
2017-02-18T10:39:36.143Z,928
2017-02-18T10:40:17.166Z,916
2017-02-18T10:40:58.125Z,936
2017-02-18T10:41:38.857Z,968
2017-02-18T10:42:19.523Z,984
2017-02-18T10:43:00.149Z,980
2017-02-18T10:43:40.765Z,984
2017-02-18T10:44:21.376Z,1020
2017-02-18T10:45:02.113Z,1056
2017-02-18T10:45:42.783Z,1060
2017-02-18T10:46:23.399Z,1028
2017-02-18T10:47:04.046Z,1000
2017-02-18T10:47:44.711Z,1000
2017-02-18T10:48:25.575Z,1004
2017-02-18T10:49:06.251Z,992
2017-02-18T10:49:46.870Z,988
2017-02-18T10:50:27.473Z,956
2017-02-18T10:51:08.863Z,932
2017-02-18T10:51:49.544Z,936
2017-02-18T10:52:30.192Z,952
2017-02-18T10:53:10.840Z,944
2017-02-18T10:53:51.414Z,948
2017-02-18T10:54:32.048Z,956
2017-02-18T10:55:12.670Z,952
2017-02-18T10:55:53.297Z,948
2017-02-18T10:56:33.958Z,940
2017-02-18T10:57:14.584Z,936
2017-02-18T10:57:55.202Z,924
2017-02-18T10:58:35.837Z,928
2017-02-18T10:59:16.458Z,908
2017-02-18T10:59:57.101Z,868
2017-02-18T11:00:37.755Z,848
2017-02-18T11:01:18.555Z,836
2017-02-18T11:01:59.209Z,732
2017-02-18T11:02:39.884Z,696
2017-02-18T11:03:20.517Z,732
2017-02-18T11:04:01.198Z,732
2017-02-18T11:04:41.795Z,620
2017-02-18T11:05:22.394Z,532
2017-02-18T11:06:03.002Z,500
2017-02-18T11:06:43.617Z,600
2017-02-18T11:07:24.237Z,640
2017-02-18T11:08:04.842Z,596
2017-02-18T11:08:45.491Z,532
2017-02-18T11:09:26.087Z,492
2017-02-18T11:10:06.677Z,528
2017-02-18T11:10:47.274Z,552
2017-02-18T11:11:27.894Z,544
2017-02-18T11:12:08.526Z,632
2017-02-18T11:12:49.117Z,700
2017-02-18T11:13:29.726Z,692
2017-02-18T11:14:10.352Z,636
2017-02-18T11:14:51.153Z,556
2017-02-18T11:15:32.044Z,564
2017-02-18T11:16:15.113Z,544
2017-02-18T11:16:57.933Z,504
2017-02-18T11:17:39.944Z,472
2017-02-18T11:18:21.538Z,596
2017-02-18T11:19:02.608Z,684
2017-02-18T11:19:44.362Z,592
2017-02-18T11:20:30.266Z,564
2017-02-18T11:21:12.719Z,572
2017-02-18T11:21:53.325Z,604
2017-02-18T11:22:33.925Z,676
2017-02-18T11:23:14.525Z,764
2017-02-18T11:23:55.139Z,816
2017-02-18T11:24:35.738Z,772
2017-02-18T11:25:16.366Z,736
2017-02-18T11:25:56.957Z,788
2017-02-18T11:26:37.585Z,820
2017-02-18T11:27:18.160Z,832
2017-02-18T11:27:58.774Z,852
2017-02-18T11:28:39.404Z,812
2017-02-18T11:29:20.009Z,732
2017-02-18T11:30:00.618Z,764
2017-02-18T11:30:41.218Z,816
2017-02-18T11:31:21.822Z,804
2017-02-18T11:32:02.446Z,848
2017-02-18T11:32:43.060Z,832
2017-02-18T11:33:23.656Z,808
2017-02-18T11:34:04.286Z,824
2017-02-18T11:34:44.897Z,776
2017-02-18T11:35:25.505Z,752
2017-02-18T11:36:06.127Z,824
2017-02-18T11:36:46.707Z,836
2017-02-18T11:37:27.296Z,812
2017-02-18T11:38:07.881Z,760
2017-02-18T11:38:48.459Z,756
2017-02-18T11:39:29.034Z,672
2017-02-18T11:40:09.631Z,628
2017-02-18T11:40:50.246Z,616
2017-02-18T11:41:30.844Z,628
2017-02-18T11:42:11.427Z,676
2017-02-18T11:42:52.041Z,680
2017-02-18T11:43:32.631Z,660
2017-02-18T11:44:13.244Z,668
2017-02-18T11:44:53.841Z,648
2017-02-18T11:45:34.447Z,764
2017-02-18T11:46:15.044Z,812
2017-02-18T11:46:55.671Z,748
2017-02-18T11:47:36.238Z,704
2017-02-18T11:48:16.841Z,716
2017-02-18T11:48:57.468Z,740
2017-02-18T11:49:38.055Z,736
2017-02-18T11:50:18.667Z,752
2017-02-18T11:50:59.282Z,692
2017-02-18T11:51:39.888Z,792
2017-02-18T11:52:20.524Z,852
2017-02-18T11:53:01.118Z,852
2017-02-18T11:53:41.764Z,796
2017-02-18T11:54:22.398Z,772
2017-02-18T11:55:03.016Z,824
2017-02-18T11:55:43.834Z,828
2017-02-18T11:56:24.437Z,860
2017-02-18T11:57:05.035Z,904
2017-02-18T11:57:45.645Z,848
2017-02-18T11:58:26.250Z,856
2017-02-18T11:59:06.863Z,924
2017-02-18T11:59:47.534Z,952
2017-02-18T12:00:28.125Z,968
2017-02-18T12:01:08.759Z,968
2017-02-18T12:01:49.424Z,924
2017-02-18T12:02:30.070Z,920
2017-02-18T12:03:10.690Z,984
2017-02-18T12:03:51.292Z,1024
2017-02-18T12:04:31.947Z,1044
2017-02-18T12:05:12.527Z,984
2017-02-18T12:05:53.148Z,944
2017-02-18T12:06:33.795Z,948
2017-02-18T12:07:14.416Z,936
2017-02-18T12:07:55.047Z,872
2017-02-18T12:08:35.660Z,820
2017-02-18T12:09:16.252Z,792
2017-02-18T12:09:56.868Z,788
2017-02-18T12:10:37.492Z,800
2017-02-18T12:11:18.104Z,816
2017-02-18T12:11:58.740Z,824
2017-02-18T12:12:39.339Z,824
2017-02-18T12:13:19.933Z,800
2017-02-18T12:14:00.696Z,764
2017-02-18T12:14:41.198Z,756
2017-02-18T12:15:21.832Z,768
2017-02-18T12:16:02.455Z,796
2017-02-18T12:16:43.057Z,808
2017-02-18T12:17:23.737Z,836
2017-02-18T12:18:04.357Z,868
2017-02-18T12:18:44.957Z,884
2017-02-18T12:19:25.565Z,916
2017-02-18T12:20:06.159Z,924
2017-02-18T12:20:46.770Z,884
2017-02-18T12:21:27.365Z,832
2017-02-18T12:22:07.973Z,820
2017-02-18T12:22:48.564Z,820
2017-02-18T12:23:29.159Z,824
2017-02-18T12:24:09.771Z,816
2017-02-18T12:24:50.379Z,784
2017-02-18T12:25:30.970Z,732
2017-02-18T12:26:11.570Z,752
2017-02-18T12:26:52.150Z,720
2017-02-18T12:27:32.732Z,684
2017-02-18T12:28:13.338Z,692
2017-02-18T12:28:53.929Z,696
2017-02-18T12:29:34.520Z,648
2017-02-18T12:30:15.108Z,636
2017-02-18T12:30:55.694Z,628
2017-02-18T12:31:36.269Z,572
2017-02-18T12:32:16.857Z,528
2017-02-18T12:32:57.457Z,500
2017-02-18T12:33:38.055Z,500
2017-02-18T12:34:18.632Z,488
2017-02-18T12:34:59.224Z,516
2017-02-18T12:35:39.814Z,576
2017-02-18T12:36:20.404Z,568
2017-02-18T12:37:00.983Z,560
2017-02-18T12:37:41.562Z,548
2017-02-18T12:38:22.145Z,572
2017-02-18T12:39:02.709Z,600
2017-02-18T12:39:43.320Z,588
2017-02-18T12:40:23.926Z,592
2017-02-18T12:41:04.544Z,596
2017-02-18T12:41:45.151Z,600
2017-02-18T12:42:25.708Z,592
2017-02-18T12:43:06.291Z,592
2017-02-18T12:43:46.895Z,612
2017-02-18T12:44:27.496Z,632
2017-02-18T12:45:08.201Z,640
2017-02-18T12:45:48.785Z,648
2017-02-18T12:46:29.380Z,672
2017-02-18T12:47:10.039Z,700
2017-02-18T12:47:50.605Z,720
2017-02-18T12:48:31.207Z,732
2017-02-18T12:49:11.809Z,732
2017-02-18T12:49:52.382Z,740
2017-02-18T12:50:32.971Z,760
2017-02-18T12:51:13.563Z,788
2017-02-18T12:51:54.152Z,824
2017-02-18T12:52:34.770Z,848
2017-02-18T12:53:15.354Z,880
2017-02-18T12:53:55.954Z,888
2017-02-18T12:54:36.567Z,864
2017-02-18T12:55:17.140Z,824
2017-02-18T12:55:57.723Z,788
2017-02-18T12:56:38.319Z,748
2017-02-18T12:57:18.923Z,728
2017-02-18T12:57:59.522Z,716
2017-02-18T12:58:40.127Z,680
2017-02-18T12:59:20.719Z,676
2017-02-18T13:00:01.291Z,680
2017-02-18T13:00:41.889Z,692
2017-02-18T13:01:22.479Z,708
2017-02-18T13:02:03.065Z,692
2017-02-18T13:02:43.662Z,656
2017-02-18T13:03:24.261Z,640
2017-02-18T13:04:04.838Z,644
2017-02-18T13:04:45.436Z,660
2017-02-18T13:05:26.025Z,668
2017-02-18T13:06:06.649Z,660
2017-02-18T13:06:47.186Z,644
2017-02-18T13:07:27.757Z,652
2017-02-18T13:08:08.353Z,644
2017-02-18T13:08:49.002Z,616
2017-02-18T13:09:31.950Z,600
2017-02-18T13:10:13.725Z,588
2017-02-18T13:10:55.391Z,540
2017-02-18T13:11:35.967Z,528
2017-02-18T13:12:16.670Z,532
2017-02-18T13:12:57.218Z,508
2017-02-18T13:13:37.823Z,480
2017-02-18T13:14:18.458Z,508
2017-02-18T13:14:59.037Z,516
2017-02-18T13:15:39.656Z,532
2017-02-18T13:16:20.241Z,520
2017-02-18T13:17:00.835Z,496
2017-02-18T13:17:41.433Z,480
2017-02-18T13:18:22.054Z,480
2017-02-18T13:19:02.723Z,472
2017-02-18T13:19:43.312Z,460
2017-02-18T13:20:23.902Z,440
2017-02-18T13:21:04.808Z,440
